sensor_id;sensor_type;location;lat;lon;timestamp;pressure;altitude;pressure_sealevel;temperature;humidity
8653;BME280;4364;52.426;9.424;2023-08-06T00:00:53;100254.78;;;14.45;100.00
8653;BME280;4364;52.426;9.424;2023-08-06T00:03:19;100263.63;;;14.51;100.00
8653;BME280;4364;52.426;9.424;2023-08-06T00:05:46;100259.91;;;14.46;100.00
8653;BME280;4364;52.426;9.424;2023-08-06T00:08:12;100260.41;;;14.49;100.00
8653;BME280;4364;52.426;9.424;2023-08-06T00:10:40;100261.41;;;14.53;100.00
8653;BME280;4364;52.426;9.424;2023-08-06T00:13:07;100263.31;;;14.52;100.00
8653;BME280;4364;52.426;9.424;2023-08-06T00:15:34;100261.25;;;14.58;100.00
8653;BME280;4364;52.426;9.424;2023-08-06T00:18:00;100260.97;;;14.59;100.00
8653;BME280;4364;52.426;9.424;2023-08-06T00:20:27;100265.50;;;14.64;100.00
8653;BME280;4364;52.426;9.424;2023-08-06T00:22:53;100257.72;;;14.57;100.00
8653;BME280;4364;52.426;9.424;2023-08-06T00:25:20;100257.13;;;14.60;100.00
8653;BME280;4364;52.426;9.424;2023-08-06T00:27:47;100255.38;;;14.64;100.00
8653;BME280;4364;52.426;9.424;2023-08-06T00:30:14;100248.31;;;14.72;100.00
8653;BME280;4364;52.426;9.424;2023-08-06T00:32:40;100244.41;;;14.64;100.00
8653;BME280;4364;52.426;9.424;2023-08-06T00:35:07;100246.84;;;14.66;100.00
8653;BME280;4364;52.426;9.424;2023-08-06T00:37:34;100238.81;;;14.70;100.00
8653;BME280;4364;52.426;9.424;2023-08-06T00:40:00;100232.03;;;14.67;100.00
8653;BME280;4364;52.426;9.424;2023-08-06T00:42:27;100229.94;;;14.64;100.00
8653;BME280;4364;52.426;9.424;2023-08-06T00:44:53;100224.41;;;14.55;100.00
8653;BME280;4364;52.426;9.424;2023-08-06T00:47:20;100220.53;;;14.56;100.00
8653;BME280;4364;52.426;9.424;2023-08-06T00:49:47;100215.88;;;14.57;100.00
8653;BME280;4364;52.426;9.424;2023-08-06T00:52:14;100216.09;;;14.60;100.00
8653;BME280;4364;52.426;9.424;2023-08-06T00:54:40;100213.59;;;14.50;100.00
8653;BME280;4364;52.426;9.424;2023-08-06T00:57:07;100197.81;;;14.47;100.00
8653;BME280;4364;52.426;9.424;2023-08-06T00:59:35;100194.63;;;14.54;100.00
8653;BME280;4364;52.426;9.424;2023-08-06T01:02:03;100188.97;;;14.50;100.00
8653;BME280;4364;52.426;9.424;2023-08-06T01:04:30;100179.91;;;14.41;100.00
8653;BME280;4364;52.426;9.424;2023-08-06T01:07:37;100177.34;;;14.44;100.00
8653;BME280;4364;52.426;9.424;2023-08-06T01:13:23;100165.31;;;14.45;100.00
8653;BME280;4364;52.426;9.424;2023-08-06T01:15:54;100162.91;;;14.53;100.00
8653;BME280;4364;52.426;9.424;2023-08-06T01:18:24;100159.53;;;14.56;100.00
8653;BME280;4364;52.426;9.424;2023-08-06T01:20:50;100158.06;;;14.50;100.00
8653;BME280;4364;52.426;9.424;2023-08-06T01:23:18;100162.72;;;14.49;100.00
8653;BME280;4364;52.426;9.424;2023-08-06T01:29:06;100167.91;;;14.51;100.00
8653;BME280;4364;52.426;9.424;2023-08-06T01:31:37;100166.91;;;14.46;100.00
8653;BME280;4364;52.426;9.424;2023-08-06T01:34:07;100162.91;;;14.53;100.00
8653;BME280;4364;52.426;9.424;2023-08-06T01:36:35;100157.25;;;14.49;100.00
8653;BME280;4364;52.426;9.424;2023-08-06T01:39:04;100164.34;;;14.50;100.00
8653;BME280;4364;52.426;9.424;2023-08-06T01:41:31;100158.50;;;14.34;100.00
8653;BME280;4364;52.426;9.424;2023-08-06T01:43:57;100156.69;;;14.30;100.00
8653;BME280;4364;52.426;9.424;2023-08-06T01:46:24;100146.59;;;14.30;100.00
8653;BME280;4364;52.426;9.424;2023-08-06T01:48:50;100146.59;;;14.39;100.00
8653;BME280;4364;52.426;9.424;2023-08-06T01:51:17;100141.63;;;14.41;100.00
8653;BME280;4364;52.426;9.424;2023-08-06T01:53:43;100130.38;;;14.42;100.00
8653;BME280;4364;52.426;9.424;2023-08-06T01:56:10;100142.28;;;14.46;100.00
8653;BME280;4364;52.426;9.424;2023-08-06T01:58:37;100137.00;;;14.50;100.00
8653;BME280;4364;52.426;9.424;2023-08-06T02:01:03;100131.03;;;14.48;100.00
8653;BME280;4364;52.426;9.424;2023-08-06T02:03:30;100131.34;;;14.46;100.00
8653;BME280;4364;52.426;9.424;2023-08-06T02:05:56;100129.44;;;14.47;100.00
8653;BME280;4364;52.426;9.424;2023-08-06T02:08:23;100123.63;;;14.49;100.00
8653;BME280;4364;52.426;9.424;2023-08-06T02:10:49;100121.22;;;14.47;100.00
8653;BME280;4364;52.426;9.424;2023-08-06T02:13:16;100122.19;;;14.51;100.00
8653;BME280;4364;52.426;9.424;2023-08-06T02:15:44;100123.63;;;14.49;100.00
8653;BME280;4364;52.426;9.424;2023-08-06T02:18:10;100126.84;;;14.51;100.00
8653;BME280;4364;52.426;9.424;2023-08-06T02:20:37;100130.72;;;14.50;100.00
8653;BME280;4364;52.426;9.424;2023-08-06T02:23:03;100126.06;;;14.50;100.00
8653;BME280;4364;52.426;9.424;2023-08-06T02:25:30;100122.81;;;14.48;100.00
8653;BME280;4364;52.426;9.424;2023-08-06T02:27:58;100113.44;;;14.32;100.00
8653;BME280;4364;52.426;9.424;2023-08-06T02:30:25;100117.59;;;14.20;100.00
8653;BME280;4364;52.426;9.424;2023-08-06T02:32:51;100116.28;;;14.18;100.00
8653;BME280;4364;52.426;9.424;2023-08-06T02:35:19;100125.34;;;14.27;100.00
8653;BME280;4364;52.426;9.424;2023-08-06T02:37:46;100121.56;;;14.14;100.00
8653;BME280;4364;52.426;9.424;2023-08-06T02:40:12;100109.47;;;14.06;100.00
8653;BME280;4364;52.426;9.424;2023-08-06T02:42:39;100114.13;;;14.06;100.00
8653;BME280;4364;52.426;9.424;2023-08-06T02:45:06;100099.97;;;14.04;100.00
8653;BME280;4364;52.426;9.424;2023-08-06T02:47:33;100100.59;;;14.01;100.00
8653;BME280;4364;52.426;9.424;2023-08-06T02:50:00;100095.75;;;13.98;100.00
8653;BME280;4364;52.426;9.424;2023-08-06T02:52:29;100099.19;;;14.03;100.00
8653;BME280;4364;52.426;9.424;2023-08-06T02:54:55;100100.13;;;13.99;100.00
8653;BME280;4364;52.426;9.424;2023-08-06T02:57:22;100084.81;;;13.98;100.00
8653;BME280;4364;52.426;9.424;2023-08-06T02:59:50;100081.47;;;14.01;100.00
8653;BME280;4364;52.426;9.424;2023-08-06T03:02:20;100074.72;;;13.98;100.00
8653;BME280;4364;52.426;9.424;2023-08-06T03:04:57;100073.25;;;14.01;100.00
8653;BME280;4364;52.426;9.424;2023-08-06T03:07:28;100075.53;;;14.07;100.00
8653;BME280;4364;52.426;9.424;2023-08-06T03:10:02;100073.13;;;14.06;100.00
8653;BME280;4364;52.426;9.424;2023-08-06T03:12:29;100066.22;;;14.08;100.00
8653;BME280;4364;52.426;9.424;2023-08-06T03:14:58;100066.06;;;14.05;100.00
8653;BME280;4364;52.426;9.424;2023-08-06T03:17:24;100054.75;;;13.98;100.00
8653;BME280;4364;52.426;9.424;2023-08-06T03:19:51;100038.00;;;13.90;100.00
8653;BME280;4364;52.426;9.424;2023-08-06T03:22:18;100051.38;;;13.92;100.00
8653;BME280;4364;52.426;9.424;2023-08-06T03:24:45;100056.38;;;13.99;100.00
8653;BME280;4364;52.426;9.424;2023-08-06T03:27:12;100056.06;;;14.00;100.00
8653;BME280;4364;52.426;9.424;2023-08-06T03:29:40;100043.00;;;13.88;100.00
8653;BME280;4364;52.426;9.424;2023-08-06T03:32:07;100039.97;;;13.90;100.00
8653;BME280;4364;52.426;9.424;2023-08-06T03:34:34;100030.63;;;13.91;100.00
8653;BME280;4364;52.426;9.424;2023-08-06T03:37:01;100025.88;;;13.74;100.00
8653;BME280;4364;52.426;9.424;2023-08-06T03:39:28;100026.19;;;13.73;100.00
8653;BME280;4364;52.426;9.424;2023-08-06T03:41:55;100020.09;;;13.76;100.00
8653;BME280;4364;52.426;9.424;2023-08-06T03:44:22;100021.31;;;13.61;100.00
8653;BME280;4364;52.426;9.424;2023-08-06T03:46:49;100022.31;;;13.65;100.00
8653;BME280;4364;52.426;9.424;2023-08-06T03:49:16;100019.75;;;13.68;100.00
8653;BME280;4364;52.426;9.424;2023-08-06T03:51:43;100019.25;;;13.66;100.00
8653;BME280;4364;52.426;9.424;2023-08-06T03:54:09;100023.25;;;13.60;100.00
8653;BME280;4364;52.426;9.424;2023-08-06T03:56:36;100024.06;;;13.61;100.00
8653;BME280;4364;52.426;9.424;2023-08-06T03:59:04;100015.06;;;13.60;100.00
8653;BME280;4364;52.426;9.424;2023-08-06T04:01:30;100018.28;;;13.62;100.00
8653;BME280;4364;52.426;9.424;2023-08-06T04:03:57;100016.22;;;13.68;100.00
8653;BME280;4364;52.426;9.424;2023-08-06T04:06:24;100018.63;;;13.69;100.00
8653;BME280;4364;52.426;9.424;2023-08-06T04:08:51;100012.84;;;13.71;100.00
8653;BME280;4364;52.426;9.424;2023-08-06T04:11:18;100009.81;;;13.73;100.00
8653;BME280;4364;52.426;9.424;2023-08-06T04:13:45;100011.59;;;13.77;100.00
8653;BME280;4364;52.426;9.424;2023-08-06T04:16:11;100009.81;;;13.73;100.00
8653;BME280;4364;52.426;9.424;2023-08-06T04:18:38;100011.13;;;13.75;100.00
8653;BME280;4364;52.426;9.424;2023-08-06T04:21:05;100017.06;;;13.77;100.00
8653;BME280;4364;52.426;9.424;2023-08-06T04:23:31;100023.94;;;13.75;100.00
8653;BME280;4364;52.426;9.424;2023-08-06T04:26:02;100017.72;;;13.83;100.00
8653;BME280;4364;52.426;9.424;2023-08-06T04:28:32;100025.44;;;13.81;100.00
8653;BME280;4364;52.426;9.424;2023-08-06T04:30:59;100021.22;;;13.75;100.00
8653;BME280;4364;52.426;9.424;2023-08-06T04:33:26;100028.31;;;13.76;100.00
8653;BME280;4364;52.426;9.424;2023-08-06T04:35:55;100014.66;;;13.76;100.00
8653;BME280;4364;52.426;9.424;2023-08-06T04:38:24;100028.31;;;13.76;100.00
8653;BME280;4364;52.426;9.424;2023-08-06T04:40:52;100022.53;;;13.77;100.00
8653;BME280;4364;52.426;9.424;2023-08-06T04:43:20;100022.53;;;13.77;100.00
8653;BME280;4364;52.426;9.424;2023-08-06T04:45:50;100026.44;;;13.85;100.00
8653;BME280;4364;52.426;9.424;2023-08-06T04:48:17;100032.16;;;13.75;100.00
8653;BME280;4364;52.426;9.424;2023-08-06T04:50:45;100032.81;;;13.71;100.00
8653;BME280;4364;52.426;9.424;2023-08-06T04:53:11;100031.22;;;13.79;100.00
8653;BME280;4364;52.426;9.424;2023-08-06T04:55:38;100033.00;;;13.84;100.00
8653;BME280;4364;52.426;9.424;2023-08-06T04:58:05;100026.75;;;13.83;100.00
8653;BME280;4364;52.426;9.424;2023-08-06T05:00:31;100031.56;;;13.86;100.00
8653;BME280;4364;52.426;9.424;2023-08-06T05:02:59;100029.38;;;13.97;100.00
8653;BME280;4364;52.426;9.424;2023-08-06T05:05:27;100041.84;;;13.89;100.00
8653;BME280;4364;52.426;9.424;2023-08-06T05:07:55;100030.47;;;13.96;100.00
8653;BME280;4364;52.426;9.424;2023-08-06T05:10:24;100034.84;;;14.06;100.00
8653;BME280;4364;52.426;9.424;2023-08-06T05:12:51;100025.88;;;14.14;100.00
8653;BME280;4364;52.426;9.424;2023-08-06T05:15:18;100039.41;;;14.28;100.00
8653;BME280;4364;52.426;9.424;2023-08-06T05:17:45;100036.22;;;14.35;100.00
8653;BME280;4364;52.426;9.424;2023-08-06T05:20:11;100029.63;;;14.27;100.00
8653;BME280;4364;52.426;9.424;2023-08-06T05:22:38;100034.63;;;14.34;100.00
8653;BME280;4364;52.426;9.424;2023-08-06T05:25:05;100035.09;;;14.36;100.00
8653;BME280;4364;52.426;9.424;2023-08-06T05:27:32;100034.16;;;14.40;100.00
8653;BME280;4364;52.426;9.424;2023-08-06T05:29:59;100026.28;;;14.48;100.00
8653;BME280;4364;52.426;9.424;2023-08-06T05:32:25;100026.13;;;14.53;100.00
8653;BME280;4364;52.426;9.424;2023-08-06T05:34:52;100030.00;;;14.52;100.00
8653;BME280;4364;52.426;9.424;2023-08-06T05:37:18;100037.72;;;14.58;100.00
8653;BME280;4364;52.426;9.424;2023-08-06T05:39:45;100040.34;;;14.63;100.00
8653;BME280;4364;52.426;9.424;2023-08-06T05:42:12;100034.88;;;14.63;100.00
8653;BME280;4364;52.426;9.424;2023-08-06T05:44:38;100032.94;;;14.64;100.00
8653;BME280;4364;52.426;9.424;2023-08-06T05:47:05;100035.81;;;14.76;100.00
8653;BME280;4364;52.426;9.424;2023-08-06T05:49:31;100024.56;;;14.78;100.00
8653;BME280;4364;52.426;9.424;2023-08-06T05:51:58;100022.00;;;14.90;100.00
8653;BME280;4364;52.426;9.424;2023-08-06T05:54:24;100019.75;;;14.92;100.00
8653;BME280;4364;52.426;9.424;2023-08-06T05:56:51;100027.31;;;14.95;100.00
8653;BME280;4364;52.426;9.424;2023-08-06T05:59:17;100028.75;;;15.01;100.00
8653;BME280;4364;52.426;9.424;2023-08-06T06:01:44;100029.22;;;15.12;100.00
8653;BME280;4364;52.426;9.424;2023-08-06T06:04:10;100026.16;;;15.23;100.00
8653;BME280;4364;52.426;9.424;2023-08-06T06:06:37;100036.59;;;15.38;100.00
8653;BME280;4364;52.426;9.424;2023-08-06T06:09:03;100031.91;;;15.47;100.00
8653;BME280;4364;52.426;9.424;2023-08-06T06:11:30;100029.78;;;15.53;100.00
8653;BME280;4364;52.426;9.424;2023-08-06T06:13:56;100028.19;;;15.61;100.00
8653;BME280;4364;52.426;9.424;2023-08-06T06:16:23;100029.94;;;15.65;100.00
8653;BME280;4364;52.426;9.424;2023-08-06T06:18:50;100028.13;;;15.78;100.00
8653;BME280;4364;52.426;9.424;2023-08-06T06:21:16;100030.22;;;15.81;100.00
8653;BME280;4364;52.426;9.424;2023-08-06T06:23:43;100029.53;;;15.93;100.00
8653;BME280;4364;52.426;9.424;2023-08-06T06:26:09;100022.47;;;15.83;100.00
8653;BME280;4364;52.426;9.424;2023-08-06T06:28:36;100016.81;;;15.88;100.00
8653;BME280;4364;52.426;9.424;2023-08-06T06:31:02;100014.88;;;15.89;100.00
8653;BME280;4364;52.426;9.424;2023-08-06T06:33:30;100004.72;;;15.89;100.00
8653;BME280;4364;52.426;9.424;2023-08-06T06:35:56;100006.34;;;15.90;100.00
8653;BME280;4364;52.426;9.424;2023-08-06T06:38:23;100012.09;;;15.98;100.00
8653;BME280;4364;52.426;9.424;2023-08-06T06:40:56;100006.28;;;15.99;100.00
8653;BME280;4364;52.426;9.424;2023-08-06T06:43:24;100012.22;;;16.01;100.00
8653;BME280;4364;52.426;9.424;2023-08-06T06:45:57;100005.97;;;16.01;100.00
8653;BME280;4364;52.426;9.424;2023-08-06T06:48:26;100004.16;;;16.05;100.00
8653;BME280;4364;52.426;9.424;2023-08-06T06:50:53;100000.16;;;16.02;100.00
8653;BME280;4364;52.426;9.424;2023-08-06T06:53:20;99998.34;;;16.06;100.00
8653;BME280;4364;52.426;9.424;2023-08-06T06:55:46;100005.31;;;16.04;100.00
8653;BME280;4364;52.426;9.424;2023-08-06T06:58:15;99999.13;;;16.07;100.00
8653;BME280;4364;52.426;9.424;2023-08-06T07:00:42;99997.03;;;16.13;100.00
8653;BME280;4364;52.426;9.424;2023-08-06T07:03:09;99996.31;;;16.24;100.00
8653;BME280;4364;52.426;9.424;2023-08-06T07:05:35;99997.94;;;16.46;100.00
8653;BME280;4364;52.426;9.424;2023-08-06T07:08:01;99994.38;;;16.46;100.00
8653;BME280;4364;52.426;9.424;2023-08-06T07:10:28;99989.97;;;16.54;100.00
8653;BME280;4364;52.426;9.424;2023-08-06T07:12:54;99987.00;;;16.59;100.00
8653;BME280;4364;52.426;9.424;2023-08-06T07:15:21;99985.94;;;16.72;100.00
8653;BME280;4364;52.426;9.424;2023-08-06T07:17:47;99993.84;;;16.74;100.00
8653;BME280;4364;52.426;9.424;2023-08-06T07:20:14;99992.38;;;16.76;100.00
8653;BME280;4364;52.426;9.424;2023-08-06T07:22:41;99988.31;;;16.82;100.00
8653;BME280;4364;52.426;9.424;2023-08-06T07:25:07;99993.47;;;16.84;100.00
8653;BME280;4364;52.426;9.424;2023-08-06T07:27:34;99991.91;;;16.95;100.00
8653;BME280;4364;52.426;9.424;2023-08-06T07:30:00;99994.72;;;17.08;100.00
8653;BME280;4364;52.426;9.424;2023-08-06T07:32:27;99994.38;;;17.09;100.00
8653;BME280;4364;52.426;9.424;2023-08-06T07:34:56;99986.69;;;17.02;100.00
8653;BME280;4364;52.426;9.424;2023-08-06T07:37:27;99985.94;;;17.14;100.00
8653;BME280;4364;52.426;9.424;2023-08-06T07:39:56;99996.50;;;17.37;100.00
8653;BME280;4364;52.426;9.424;2023-08-06T07:42:23;99993.81;;;17.49;100.00
8653;BME280;4364;52.426;9.424;2023-08-06T07:44:54;99988.72;;;17.39;98.50
8653;BME280;4364;52.426;9.424;2023-08-06T07:47:22;99990.47;;;17.44;98.88
8653;BME280;4364;52.426;9.424;2023-08-06T07:49:49;99984.75;;;17.49;98.20
8653;BME280;4364;52.426;9.424;2023-08-06T07:52:16;99986.59;;;17.45;97.71
8653;BME280;4364;52.426;9.424;2023-08-06T07:54:42;99994.50;;;17.46;96.88
8653;BME280;4364;52.426;9.424;2023-08-06T07:57:09;99985.28;;;17.30;97.12
8653;BME280;4364;52.426;9.424;2023-08-06T07:59:35;99993.22;;;17.44;97.03
8653;BME280;4364;52.426;9.424;2023-08-06T08:02:02;99992.69;;;17.63;96.19
8653;BME280;4364;52.426;9.424;2023-08-06T08:04:28;99995.16;;;18.01;91.95
8653;BME280;4364;52.426;9.424;2023-08-06T08:06:55;99989.81;;;17.84;92.18
8653;BME280;4364;52.426;9.424;2023-08-06T08:09:21;99983.97;;;17.85;92.12
8653;BME280;4364;52.426;9.424;2023-08-06T08:11:48;99988.81;;;18.01;90.20
8653;BME280;4364;52.426;9.424;2023-08-06T08:14:15;99991.22;;;18.02;88.95
8653;BME280;4364;52.426;9.424;2023-08-06T08:16:41;99974.13;;;18.33;87.38
8653;BME280;4364;52.426;9.424;2023-08-06T08:19:08;99985.47;;;18.44;85.85
8653;BME280;4364;52.426;9.424;2023-08-06T08:21:34;99979.00;;;18.52;86.86
8653;BME280;4364;52.426;9.424;2023-08-06T08:24:01;99978.44;;;18.47;85.23
8653;BME280;4364;52.426;9.424;2023-08-06T08:26:28;99966.53;;;18.43;85.04
8653;BME280;4364;52.426;9.424;2023-08-06T08:28:56;99969.81;;;18.61;85.02
8653;BME280;4364;52.426;9.424;2023-08-06T08:31:22;99972.28;;;18.78;85.80
8653;BME280;4364;52.426;9.424;2023-08-06T08:33:49;99977.59;;;18.99;85.12
8653;BME280;4364;52.426;9.424;2023-08-06T08:36:19;99977.81;;;19.06;83.71
8653;BME280;4364;52.426;9.424;2023-08-06T08:38:46;99979.84;;;18.81;82.34
8653;BME280;4364;52.426;9.424;2023-08-06T08:41:12;99981.13;;;18.84;83.08
8653;BME280;4364;52.426;9.424;2023-08-06T08:43:40;99970.66;;;18.77;82.41
8653;BME280;4364;52.426;9.424;2023-08-06T08:46:09;99962.38;;;18.49;82.75
8653;BME280;4364;52.426;9.424;2023-08-06T08:48:36;99969.06;;;18.48;84.38
8653;BME280;4364;52.426;9.424;2023-08-06T08:51:03;99970.88;;;18.44;85.52
8653;BME280;4364;52.426;9.424;2023-08-06T08:53:31;99973.75;;;18.47;85.80
8653;BME280;4364;52.426;9.424;2023-08-06T08:55:58;99965.50;;;18.76;85.41
8653;BME280;4364;52.426;9.424;2023-08-06T08:58:24;99970.41;;;19.39;83.05
8653;BME280;4364;52.426;9.424;2023-08-06T09:00:51;99970.31;;;19.67;80.61
8653;BME280;4364;52.426;9.424;2023-08-06T09:03:18;99968.22;;;19.76;79.85
8653;BME280;4364;52.426;9.424;2023-08-06T09:05:45;99965.16;;;19.66;77.68
8653;BME280;4364;52.426;9.424;2023-08-06T09:08:18;99967.91;;;19.66;77.45
8653;BME280;4364;52.426;9.424;2023-08-06T09:10:48;99960.13;;;20.19;77.13
8653;BME280;4364;52.426;9.424;2023-08-06T09:13:16;99962.97;;;20.78;75.61
8653;BME280;4364;52.426;9.424;2023-08-06T09:15:42;99962.88;;;21.13;73.61
8653;BME280;4364;52.426;9.424;2023-08-06T09:18:11;99966.69;;;20.66;73.75
8653;BME280;4364;52.426;9.424;2023-08-06T09:20:38;99958.59;;;20.57;73.87
8653;BME280;4364;52.426;9.424;2023-08-06T09:23:09;99951.81;;;20.54;71.80
8653;BME280;4364;52.426;9.424;2023-08-06T09:25:39;99955.22;;;20.64;72.54
8653;BME280;4364;52.426;9.424;2023-08-06T09:28:06;99955.19;;;21.03;72.05
8653;BME280;4364;52.426;9.424;2023-08-06T09:30:36;99943.75;;;21.04;70.39
8653;BME280;4364;52.426;9.424;2023-08-06T09:35:30;99951.97;;;21.43;71.23
8653;BME280;4364;52.426;9.424;2023-08-06T09:38:07;99954.31;;;21.64;70.88
8653;BME280;4364;52.426;9.424;2023-08-06T09:40:35;99953.28;;;21.50;69.20
8653;BME280;4364;52.426;9.424;2023-08-06T09:43:02;99947.19;;;21.40;69.21
8653;BME280;4364;52.426;9.424;2023-08-06T09:45:36;99959.50;;;21.46;71.28
8653;BME280;4364;52.426;9.424;2023-08-06T09:48:08;99959.22;;;21.28;72.55
8653;BME280;4364;52.426;9.424;2023-08-06T09:50:36;99955.31;;;21.53;70.26
8653;BME280;4364;52.426;9.424;2023-08-06T09:53:05;99949.53;;;21.61;69.61
8653;BME280;4364;52.426;9.424;2023-08-06T09:55:32;99948.84;;;21.68;67.61
8653;BME280;4364;52.426;9.424;2023-08-06T09:57:59;99950.22;;;21.81;67.78
8653;BME280;4364;52.426;9.424;2023-08-06T10:00:26;99952.06;;;21.70;64.78
8653;BME280;4364;52.426;9.424;2023-08-06T10:02:53;99952.41;;;21.69;61.78
8653;BME280;4364;52.426;9.424;2023-08-06T10:05:23;99954.03;;;21.96;62.36
8653;BME280;4364;52.426;9.424;2023-08-06T10:07:50;99953.47;;;22.10;60.51
8653;BME280;4364;52.426;9.424;2023-08-06T10:10:18;99952.63;;;21.83;58.27
8653;BME280;4364;52.426;9.424;2023-08-06T10:12:52;99952.22;;;21.81;59.90
8653;BME280;4364;52.426;9.424;2023-08-06T10:15:25;99941.56;;;21.83;62.47
8653;BME280;4364;52.426;9.424;2023-08-06T10:17:55;99942.75;;;21.82;63.64
8653;BME280;4364;52.426;9.424;2023-08-06T10:20:23;99932.06;;;21.80;62.39
8653;BME280;4364;52.426;9.424;2023-08-06T10:23:01;99930.66;;;21.44;64.14
8653;BME280;4364;52.426;9.424;2023-08-06T10:25:30;99936.44;;;21.35;62.54
8653;BME280;4364;52.426;9.424;2023-08-06T10:27:58;99937.00;;;21.25;63.81
8653;BME280;4364;52.426;9.424;2023-08-06T10:30:25;99933.88;;;21.26;64.91
8653;BME280;4364;52.426;9.424;2023-08-06T10:32:54;99937.63;;;21.15;64.80
8653;BME280;4364;52.426;9.424;2023-08-06T10:35:46;99935.69;;;21.15;65.11
8653;BME280;4364;52.426;9.424;2023-08-06T10:38:20;99926.44;;;21.07;66.45
8653;BME280;4364;52.426;9.424;2023-08-06T10:43:37;99935.50;;;20.85;69.80
8653;BME280;4364;52.426;9.424;2023-08-06T10:46:22;99917.34;;;20.64;72.29
8653;BME280;4364;52.426;9.424;2023-08-06T10:48:50;99914.47;;;20.61;72.01
8653;BME280;4364;52.426;9.424;2023-08-06T10:51:17;99907.47;;;20.63;68.19
8653;BME280;4364;52.426;9.424;2023-08-06T10:53:48;99910.09;;;20.60;68.50
8653;BME280;4364;52.426;9.424;2023-08-06T10:56:17;99912.69;;;20.68;67.57
8653;BME280;4364;52.426;9.424;2023-08-06T10:58:45;99905.84;;;20.82;67.09
8653;BME280;4364;52.426;9.424;2023-08-06T11:01:12;99902.63;;;20.80;66.08
8653;BME280;4364;52.426;9.424;2023-08-06T11:03:39;99907.28;;;20.95;65.78
8653;BME280;4364;52.426;9.424;2023-08-06T11:06:10;99914.34;;;20.73;66.32
8653;BME280;4364;52.426;9.424;2023-08-06T11:08:38;99911.44;;;20.85;66.57
8653;BME280;4364;52.426;9.424;2023-08-06T11:11:12;99909.69;;;20.97;65.56
8653;BME280;4364;52.426;9.424;2023-08-06T11:13:44;99908.94;;;21.00;64.83
8653;BME280;4364;52.426;9.424;2023-08-06T11:16:17;99905.91;;;20.85;63.57
8653;BME280;4364;52.426;9.424;2023-08-06T11:18:44;99899.78;;;20.96;64.71
8653;BME280;4364;52.426;9.424;2023-08-06T11:21:11;99899.22;;;21.09;64.34
8653;BME280;4364;52.426;9.424;2023-08-06T11:23:40;99895.06;;;21.19;65.98
8653;BME280;4364;52.426;9.424;2023-08-06T11:26:07;99891.25;;;21.27;65.94
8653;BME280;4364;52.426;9.424;2023-08-06T11:28:33;99897.19;;;21.49;66.02
8653;BME280;4364;52.426;9.424;2023-08-06T11:31:00;99891.00;;;21.86;61.12
8653;BME280;4364;52.426;9.424;2023-08-06T11:33:28;99889.19;;;22.58;60.49
8653;BME280;4364;52.426;9.424;2023-08-06T11:35:56;99896.16;;;22.45;58.28
8653;BME280;4364;52.426;9.424;2023-08-06T11:38:29;99893.63;;;22.02;58.28
8653;BME280;4364;52.426;9.424;2023-08-06T11:40:56;99884.03;;;22.56;57.11
8653;BME280;4364;52.426;9.424;2023-08-06T11:43:23;99880.00;;;22.84;55.15
8653;BME280;4364;52.426;9.424;2023-08-06T11:45:50;99884.72;;;23.21;53.94
8653;BME280;4364;52.426;9.424;2023-08-06T11:48:17;99883.41;;;23.08;52.56
8653;BME280;4364;52.426;9.424;2023-08-06T11:50:45;99875.28;;;23.26;53.60
8653;BME280;4364;52.426;9.424;2023-08-06T11:53:13;99876.34;;;23.62;53.57
8653;BME280;4364;52.426;9.424;2023-08-06T11:55:40;99865.88;;;23.00;52.31
8653;BME280;4364;52.426;9.424;2023-08-06T11:58:07;99860.59;;;22.84;51.90
8653;BME280;4364;52.426;9.424;2023-08-06T12:00:33;99868.50;;;22.48;54.20
8653;BME280;4364;52.426;9.424;2023-08-06T12:03:00;99861.25;;;22.36;54.32
8653;BME280;4364;52.426;9.424;2023-08-06T12:05:30;99857.72;;;22.09;55.68
8653;BME280;4364;52.426;9.424;2023-08-06T12:07:59;99860.91;;;22.11;54.98
8653;BME280;4364;52.426;9.424;2023-08-06T12:10:28;99844.69;;;22.10;56.00
8653;BME280;4364;52.426;9.424;2023-08-06T12:12:55;99850.03;;;22.26;56.04
8653;BME280;4364;52.426;9.424;2023-08-06T12:15:22;99849.38;;;22.36;55.61
8653;BME280;4364;52.426;9.424;2023-08-06T12:17:50;99847.03;;;22.38;54.50
8653;BME280;4364;52.426;9.424;2023-08-06T12:20:17;99846.72;;;22.47;55.43
8653;BME280;4364;52.426;9.424;2023-08-06T12:22:44;99843.69;;;22.97;53.07
8653;BME280;4364;52.426;9.424;2023-08-06T12:25:12;99835.16;;;23.12;52.90
8653;BME280;4364;52.426;9.424;2023-08-06T12:27:43;99843.09;;;23.14;52.87
8653;BME280;4364;52.426;9.424;2023-08-06T12:30:10;99841.13;;;22.77;53.96
8653;BME280;4364;52.426;9.424;2023-08-06T12:32:38;99837.31;;;22.92;53.21
8653;BME280;4364;52.426;9.424;2023-08-06T12:35:05;99839.25;;;22.88;53.23
8653;BME280;4364;52.426;9.424;2023-08-06T12:37:34;99847.66;;;22.58;54.75
8653;BME280;4364;52.426;9.424;2023-08-06T12:40:00;99849.56;;;22.50;54.27
8653;BME280;4364;52.426;9.424;2023-08-06T12:42:49;99840.38;;;22.43;54.14
8653;BME280;4364;52.426;9.424;2023-08-06T12:45:16;99845.53;;;22.44;54.90
8653;BME280;4364;52.426;9.424;2023-08-06T12:47:43;99853.16;;;22.54;55.43
8653;BME280;4364;52.426;9.424;2023-08-06T12:50:10;99850.81;;;22.26;56.38
8653;BME280;4364;52.426;9.424;2023-08-06T12:52:36;99846.63;;;22.06;56.31
8653;BME280;4364;52.426;9.424;2023-08-06T12:55:03;99836.25;;;21.99;57.08
8653;BME280;4364;52.426;9.424;2023-08-06T12:57:31;99850.63;;;21.81;57.25
8653;BME280;4364;52.426;9.424;2023-08-06T13:00:17;99849.41;;;21.79;57.04
8653;BME280;4364;52.426;9.424;2023-08-06T13:02:44;99840.91;;;21.64;57.64
8653;BME280;4364;52.426;9.424;2023-08-06T13:05:10;99846.00;;;21.62;58.94
8653;BME280;4364;52.426;9.424;2023-08-06T13:07:37;99846.28;;;21.54;59.49
8653;BME280;4364;52.426;9.424;2023-08-06T13:10:03;99853.63;;;21.46;59.29
8653;BME280;4364;52.426;9.424;2023-08-06T13:12:30;99840.81;;;21.34;59.57
8653;BME280;4364;52.426;9.424;2023-08-06T13:14:57;99849.06;;;21.31;60.21
8653;BME280;4364;52.426;9.424;2023-08-06T13:17:27;99845.00;;;21.24;60.63
8653;BME280;4364;52.426;9.424;2023-08-06T13:19:53;99850.03;;;21.19;61.62
8653;BME280;4364;52.426;9.424;2023-08-06T13:22:20;99851.81;;;21.07;61.96
8653;BME280;4364;52.426;9.424;2023-08-06T13:24:47;99840.97;;;20.95;62.36